sensor_id;sensor_type;location;lat;lon;timestamp;pressure;altitude;pressure_sealevel;temperature
19948;BMP180;10135;50.702;7.276;2023-05-14T05:30:26;99621.00;;;16.50
19948;BMP180;10135;50.702;7.276;2023-05-14T05:32:30;99616.00;;;16.70
19948;BMP180;10135;50.702;7.276;2023-05-14T05:34:43;99620.00;;;16.90
19948;BMP180;10135;50.702;7.276;2023-05-14T05:37:14;99624.00;;;17.10
19948;BMP180;10135;50.702;7.276;2023-05-14T05:39:38;99620.00;;;17.30
19948;BMP180;10135;50.702;7.276;2023-05-14T05:42:41;99612.00;;;17.60
19948;BMP180;10135;50.702;7.276;2023-05-14T05:45:34;99612.00;;;18.00
19948;BMP180;10135;50.702;7.276;2023-05-14T05:47:55;99623.00;;;18.30
19948;BMP180;10135;50.702;7.276;2023-05-14T05:50:15;99626.00;;;18.60
19948;BMP180;10135;50.702;7.276;2023-05-14T05:53:04;99616.00;;;18.90
19948;BMP180;10135;50.702;7.276;2023-05-14T05:55:52;99616.00;;;19.30
19948;BMP180;10135;50.702;7.276;2023-05-14T05:58:07;99615.00;;;19.90
19948;BMP180;10135;50.702;7.276;2023-05-14T06:00:37;99614.00;;;20.40
19948;BMP180;10135;50.702;7.276;2023-05-14T06:02:41;99613.00;;;20.90
19948;BMP180;10135;50.702;7.276;2023-05-14T06:04:42;99612.00;;;21.20
19948;BMP180;10135;50.702;7.276;2023-05-14T06:06:42;99612.00;;;21.60
19948;BMP180;10135;50.702;7.276;2023-05-14T06:08:43;99613.00;;;21.80
19948;BMP180;10135;50.702;7.276;2023-05-14T06:10:44;99613.00;;;22.00
19948;BMP180;10135;50.702;7.276;2023-05-14T06:12:45;99613.00;;;22.00
19948;BMP180;10135;50.702;7.276;2023-05-14T06:14:46;99614.00;;;21.90
19948;BMP180;10135;50.702;7.276;2023-05-14T06:16:47;99614.00;;;21.90
19948;BMP180;10135;50.702;7.276;2023-05-14T06:18:48;99611.00;;;22.00
19948;BMP180;10135;50.702;7.276;2023-05-14T06:20:48;99615.00;;;22.00
19948;BMP180;10135;50.702;7.276;2023-05-14T06:22:49;99612.00;;;22.10
19948;BMP180;10135;50.702;7.276;2023-05-14T06:24:50;99607.00;;;22.10
19948;BMP180;10135;50.702;7.276;2023-05-14T06:26:50;99607.00;;;22.20
19948;BMP180;10135;50.702;7.276;2023-05-14T06:28:51;99604.00;;;22.20
19948;BMP180;10135;50.702;7.276;2023-05-14T06:30:52;99609.00;;;22.20
19948;BMP180;10135;50.702;7.276;2023-05-14T06:32:55;99613.00;;;22.20
19948;BMP180;10135;50.702;7.276;2023-05-14T06:34:56;99609.00;;;22.20
19948;BMP180;10135;50.702;7.276;2023-05-14T06:36:56;99614.00;;;22.30
19948;BMP180;10135;50.702;7.276;2023-05-14T06:38:57;99617.00;;;22.30
19948;BMP180;10135;50.702;7.276;2023-05-14T06:40:58;99609.00;;;22.30
19948;BMP180;10135;50.702;7.276;2023-05-14T06:42:58;99611.00;;;22.40
19948;BMP180;10135;50.702;7.276;2023-05-14T06:44:59;99611.00;;;22.40
19948;BMP180;10135;50.702;7.276;2023-05-14T06:47:00;99610.00;;;22.40
19948;BMP180;10135;50.702;7.276;2023-05-14T06:49:00;99606.00;;;22.40
19948;BMP180;10135;50.702;7.276;2023-05-14T06:51:01;99603.00;;;22.40
19948;BMP180;10135;50.702;7.276;2023-05-14T06:53:03;99609.00;;;22.50
19948;BMP180;10135;50.702;7.276;2023-05-14T06:55:04;99608.00;;;22.50
19948;BMP180;10135;50.702;7.276;2023-05-14T06:57:05;99611.00;;;22.60
19948;BMP180;10135;50.702;7.276;2023-05-14T06:59:05;99605.00;;;22.70
19948;BMP180;10135;50.702;7.276;2023-05-14T07:01:06;99602.00;;;22.80
19948;BMP180;10135;50.702;7.276;2023-05-14T07:03:06;99607.00;;;22.80
19948;BMP180;10135;50.702;7.276;2023-05-14T07:05:09;99609.00;;;22.80
19948;BMP180;10135;50.702;7.276;2023-05-14T07:07:10;99607.00;;;22.80
19948;BMP180;10135;50.702;7.276;2023-05-14T07:09:15;99612.00;;;22.70
19948;BMP180;10135;50.702;7.276;2023-05-14T07:11:15;99612.00;;;22.60
19948;BMP180;10135;50.702;7.276;2023-05-14T07:13:16;99614.00;;;22.60
19948;BMP180;10135;50.702;7.276;2023-05-14T07:15:17;99612.00;;;22.60
19948;BMP180;10135;50.702;7.276;2023-05-14T07:17:17;99618.00;;;22.70
19948;BMP180;10135;50.702;7.276;2023-05-14T07:19:18;99615.00;;;22.70
19948;BMP180;10135;50.702;7.276;2023-05-14T07:21:19;99616.00;;;22.70
19948;BMP180;10135;50.702;7.276;2023-05-14T07:23:19;99615.00;;;22.70
19948;BMP180;10135;50.702;7.276;2023-05-14T07:25:21;99609.00;;;22.80
19948;BMP180;10135;50.702;7.276;2023-05-14T07:27:21;99607.00;;;22.80
19948;BMP180;10135;50.702;7.276;2023-05-14T07:29:22;99608.00;;;22.80
19948;BMP180;10135;50.702;7.276;2023-05-14T07:31:24;99601.00;;;22.80
19948;BMP180;10135;50.702;7.276;2023-05-14T07:33:25;99604.00;;;22.80
19948;BMP180;10135;50.702;7.276;2023-05-14T07:35:26;99611.00;;;22.70
19948;BMP180;10135;50.702;7.276;2023-05-14T07:37:27;99612.00;;;22.70
19948;BMP180;10135;50.702;7.276;2023-05-14T07:39:27;99602.00;;;22.60
19948;BMP180;10135;50.702;7.276;2023-05-14T07:41:28;99607.00;;;22.60
19948;BMP180;10135;50.702;7.276;2023-05-14T07:43:29;99606.00;;;22.60
19948;BMP180;10135;50.702;7.276;2023-05-14T07:45:30;99605.00;;;22.60
19948;BMP180;10135;50.702;7.276;2023-05-14T07:47:31;99609.00;;;22.70
19948;BMP180;10135;50.702;7.276;2023-05-14T07:49:32;99596.00;;;22.70
19948;BMP180;10135;50.702;7.276;2023-05-14T07:51:32;99599.00;;;22.80
19948;BMP180;10135;50.702;7.276;2023-05-14T07:53:33;99590.00;;;22.90
19948;BMP180;10135;50.702;7.276;2023-05-14T07:55:34;99589.00;;;23.00
19948;BMP180;10135;50.702;7.276;2023-05-14T07:57:34;99595.00;;;23.00
19948;BMP180;10135;50.702;7.276;2023-05-14T07:59:35;99594.00;;;23.10
19948;BMP180;10135;50.702;7.276;2023-05-14T08:01:36;99591.00;;;23.10
19948;BMP180;10135;50.702;7.276;2023-05-14T08:03:36;99581.00;;;23.10
19948;BMP180;10135;50.702;7.276;2023-05-14T08:05:37;99584.00;;;23.20
19948;BMP180;10135;50.702;7.276;2023-05-14T08:07:38;99587.00;;;23.20
19948;BMP180;10135;50.702;7.276;2023-05-14T08:09:38;99586.00;;;23.30
19948;BMP180;10135;50.702;7.276;2023-05-14T08:11:39;99586.00;;;23.50
19948;BMP180;10135;50.702;7.276;2023-05-14T08:13:40;99589.00;;;23.70
19948;BMP180;10135;50.702;7.276;2023-05-14T08:15:41;99581.00;;;23.90
19948;BMP180;10135;50.702;7.276;2023-05-14T08:17:41;99581.00;;;23.90
19948;BMP180;10135;50.702;7.276;2023-05-14T08:19:44;99578.00;;;23.90
19948;BMP180;10135;50.702;7.276;2023-05-14T08:21:44;99584.00;;;23.90
19948;BMP180;10135;50.702;7.276;2023-05-14T08:23:45;99588.00;;;23.90
19948;BMP180;10135;50.702;7.276;2023-05-14T08:25:46;99583.00;;;23.90
19948;BMP180;10135;50.702;7.276;2023-05-14T08:27:46;99584.00;;;23.90
19948;BMP180;10135;50.702;7.276;2023-05-14T08:29:47;99584.00;;;23.90
19948;BMP180;10135;50.702;7.276;2023-05-14T08:31:49;99584.00;;;23.90
19948;BMP180;10135;50.702;7.276;2023-05-14T08:33:50;99583.00;;;23.80
19948;BMP180;10135;50.702;7.276;2023-05-14T08:35:52;99580.00;;;23.70
19948;BMP180;10135;50.702;7.276;2023-05-14T08:37:53;99585.00;;;23.60
19948;BMP180;10135;50.702;7.276;2023-05-14T08:39:54;99587.00;;;23.50
19948;BMP180;10135;50.702;7.276;2023-05-14T08:41:59;99584.00;;;23.40
19948;BMP180;10135;50.702;7.276;2023-05-14T08:44:12;99582.00;;;23.20
19948;BMP180;10135;50.702;7.276;2023-05-14T08:46:16;99582.00;;;23.20
19948;BMP180;10135;50.702;7.276;2023-05-14T08:48:20;99585.00;;;23.10
19948;BMP180;10135;50.702;7.276;2023-05-14T08:50:22;99575.00;;;23.00
19948;BMP180;10135;50.702;7.276;2023-05-14T08:52:23;99572.00;;;22.90
19948;BMP180;10135;50.702;7.276;2023-05-14T08:54:24;99572.00;;;22.80
19948;BMP180;10135;50.702;7.276;2023-05-14T08:56:26;99579.00;;;22.80
19948;BMP180;10135;50.702;7.276;2023-05-14T08:58:28;99573.00;;;22.70
19948;BMP180;10135;50.702;7.276;2023-05-14T09:00:28;99575.00;;;22.70
19948;BMP180;10135;50.702;7.276;2023-05-14T09:02:30;99574.00;;;22.70
19948;BMP180;10135;50.702;7.276;2023-05-14T09:04:32;99579.00;;;22.70
19948;BMP180;10135;50.702;7.276;2023-05-14T09:06:36;99573.00;;;22.70
19948;BMP180;10135;50.702;7.276;2023-05-14T09:08:37;99573.00;;;22.70
19948;BMP180;10135;50.702;7.276;2023-05-14T09:10:38;99569.00;;;22.60
19948;BMP180;10135;50.702;7.276;2023-05-14T09:12:39;99574.00;;;22.60
19948;BMP180;10135;50.702;7.276;2023-05-14T09:14:40;99580.00;;;22.60
19948;BMP180;10135;50.702;7.276;2023-05-14T09:16:47;99571.00;;;22.60
19948;BMP180;10135;50.702;7.276;2023-05-14T09:18:50;99563.00;;;22.60
19948;BMP180;10135;50.702;7.276;2023-05-14T09:20:51;99572.00;;;22.60
19948;BMP180;10135;50.702;7.276;2023-05-14T09:22:52;99576.00;;;22.60
19948;BMP180;10135;50.702;7.276;2023-05-14T09:25:08;99570.00;;;22.60
19948;BMP180;10135;50.702;7.276;2023-05-14T09:27:19;99571.00;;;22.60
19948;BMP180;10135;50.702;7.276;2023-05-14T09:29:23;99571.00;;;22.60
19948;BMP180;10135;50.702;7.276;2023-05-14T09:31:23;99566.00;;;22.60
19948;BMP180;10135;50.702;7.276;2023-05-14T09:33:28;99561.00;;;22.60
19948;BMP180;10135;50.702;7.276;2023-05-14T09:35:29;99565.00;;;22.60
19948;BMP180;10135;50.702;7.276;2023-05-14T09:37:35;99562.00;;;22.60
19948;BMP180;10135;50.702;7.276;2023-05-14T09:39:37;99556.00;;;22.60
19948;BMP180;10135;50.702;7.276;2023-05-14T09:41:38;99551.00;;;22.60
19948;BMP180;10135;50.702;7.276;2023-05-14T09:43:38;99556.00;;;22.60
19948;BMP180;10135;50.702;7.276;2023-05-14T09:45:40;99552.00;;;22.70
19948;BMP180;10135;50.702;7.276;2023-05-14T09:47:41;99554.00;;;22.70
19948;BMP180;10135;50.702;7.276;2023-05-14T09:49:41;99556.00;;;22.70
19948;BMP180;10135;50.702;7.276;2023-05-14T09:51:42;99546.00;;;22.70
19948;BMP180;10135;50.702;7.276;2023-05-14T09:53:43;99546.00;;;22.70
19948;BMP180;10135;50.702;7.276;2023-05-14T09:55:45;99544.00;;;22.80
19948;BMP180;10135;50.702;7.276;2023-05-14T09:57:45;99546.00;;;22.80
19948;BMP180;10135;50.702;7.276;2023-05-14T09:59:46;99541.00;;;22.80
19948;BMP180;10135;50.702;7.276;2023-05-14T10:01:48;99538.00;;;22.80
19948;BMP180;10135;50.702;7.276;2023-05-14T10:03:49;99538.00;;;22.80
19948;BMP180;10135;50.702;7.276;2023-05-14T10:05:51;99534.00;;;22.80
19948;BMP180;10135;50.702;7.276;2023-05-14T10:07:56;99535.00;;;22.80
19948;BMP180;10135;50.702;7.276;2023-05-14T10:10:01;99531.00;;;22.90
19948;BMP180;10135;50.702;7.276;2023-05-14T10:12:03;99526.00;;;22.90
19948;BMP180;10135;50.702;7.276;2023-05-14T10:16:15;99521.00;;;22.90
19948;BMP180;10135;50.702;7.276;2023-05-14T10:18:22;99521.00;;;23.00
19948;BMP180;10135;50.702;7.276;2023-05-14T10:20:25;99523.00;;;23.00
19948;BMP180;10135;50.702;7.276;2023-05-14T10:22:32;99514.00;;;23.00
19948;BMP180;10135;50.702;7.276;2023-05-14T10:24:34;99505.00;;;23.00
19948;BMP180;10135;50.702;7.276;2023-05-14T10:26:39;99511.00;;;23.10
19948;BMP180;10135;50.702;7.276;2023-05-14T10:28:42;99510.00;;;23.10
19948;BMP180;10135;50.702;7.276;2023-05-14T10:30:44;99513.00;;;23.20
19948;BMP180;10135;50.702;7.276;2023-05-14T10:32:45;99507.00;;;23.20
19948;BMP180;10135;50.702;7.276;2023-05-14T10:34:46;99505.00;;;23.20
19948;BMP180;10135;50.702;7.276;2023-05-14T10:36:47;99514.00;;;23.30
19948;BMP180;10135;50.702;7.276;2023-05-14T10:38:54;99502.00;;;23.30
19948;BMP180;10135;50.702;7.276;2023-05-14T10:41:02;99510.00;;;23.30
19948;BMP180;10135;50.702;7.276;2023-05-14T10:43:04;99510.00;;;23.40
19948;BMP180;10135;50.702;7.276;2023-05-14T10:45:11;99507.00;;;23.40
19948;BMP180;10135;50.702;7.276;2023-05-14T10:47:13;99504.00;;;23.40
19948;BMP180;10135;50.702;7.276;2023-05-14T10:49:14;99501.00;;;23.40
19948;BMP180;10135;50.702;7.276;2023-05-14T10:51:17;99501.00;;;23.40
19948;BMP180;10135;50.702;7.276;2023-05-14T10:53:30;99492.00;;;23.40
19948;BMP180;10135;50.702;7.276;2023-05-14T10:55:31;99498.00;;;23.40
19948;BMP180;10135;50.702;7.276;2023-05-14T10:57:38;99491.00;;;23.50
19948;BMP180;10135;50.702;7.276;2023-05-14T10:59:42;99489.00;;;23.50
19948;BMP180;10135;50.702;7.276;2023-05-14T11:01:44;99491.00;;;23.50
19948;BMP180;10135;50.702;7.276;2023-05-14T11:03:46;99477.00;;;23.50
19948;BMP180;10135;50.702;7.276;2023-05-14T11:05:47;99477.00;;;23.60
19948;BMP180;10135;50.702;7.276;2023-05-14T11:07:49;99484.00;;;23.60
19948;BMP180;10135;50.702;7.276;2023-05-14T11:09:50;99482.00;;;23.70
19948;BMP180;10135;50.702;7.276;2023-05-14T11:11:52;99481.00;;;23.80
19948;BMP180;10135;50.702;7.276;2023-05-14T11:13:55;99473.00;;;23.80
19948;BMP180;10135;50.702;7.276;2023-05-14T11:15:57;99472.00;;;23.80
19948;BMP180;10135;50.702;7.276;2023-05-14T11:17:58;99477.00;;;23.90
19948;BMP180;10135;50.702;7.276;2023-05-14T11:19:59;99474.00;;;23.90
19948;BMP180;10135;50.702;7.276;2023-05-14T11:22:00;99463.00;;;23.80
19948;BMP180;10135;50.702;7.276;2023-05-14T11:24:00;99467.00;;;23.90
19948;BMP180;10135;50.702;7.276;2023-05-14T11:26:01;99464.00;;;23.90
19948;BMP180;10135;50.702;7.276;2023-05-14T11:28:02;99466.00;;;23.90
19948;BMP180;10135;50.702;7.276;2023-05-14T11:30:04;99467.00;;;23.80
19948;BMP180;10135;50.702;7.276;2023-05-14T11:32:05;99460.00;;;23.80
19948;BMP180;10135;50.702;7.276;2023-05-14T11:34:07;99467.00;;;23.70
19948;BMP180;10135;50.702;7.276;2023-05-14T11:36:10;99468.00;;;23.70
19948;BMP180;10135;50.702;7.276;2023-05-14T11:38:19;99470.00;;;23.60
19948;BMP180;10135;50.702;7.276;2023-05-14T11:40:20;99466.00;;;23.60
19948;BMP180;10135;50.702;7.276;2023-05-14T11:42:21;99469.00;;;23.50
19948;BMP180;10135;50.702;7.276;2023-05-14T11:44:23;99459.00;;;23.50
19948;BMP180;10135;50.702;7.276;2023-05-14T11:46:23;99459.00;;;23.50
19948;BMP180;10135;50.702;7.276;2023-05-14T11:48:25;99461.00;;;23.40
19948;BMP180;10135;50.702;7.276;2023-05-14T11:50:26;99454.00;;;23.40
19948;BMP180;10135;50.702;7.276;2023-05-14T11:52:26;99448.00;;;23.40
19948;BMP180;10135;50.702;7.276;2023-05-14T11:54:28;99445.00;;;23.50
19948;BMP180;10135;50.702;7.276;2023-05-14T11:56:29;99453.00;;;23.50
19948;BMP180;10135;50.702;7.276;2023-05-14T11:58:33;99440.00;;;23.60
19948;BMP180;10135;50.702;7.276;2023-05-14T12:00:34;99446.00;;;23.70
19948;BMP180;10135;50.702;7.276;2023-05-14T12:02:36;99449.00;;;23.70
19948;BMP180;10135;50.702;7.276;2023-05-14T12:04:37;99444.00;;;23.70
19948;BMP180;10135;50.702;7.276;2023-05-14T12:06:38;99442.00;;;23.70
19948;BMP180;10135;50.702;7.276;2023-05-14T12:08:39;99442.00;;;23.70
19948;BMP180;10135;50.702;7.276;2023-05-14T12:10:41;99446.00;;;23.70
19948;BMP180;10135;50.702;7.276;2023-05-14T12:12:46;99443.00;;;23.70
19948;BMP180;10135;50.702;7.276;2023-05-14T12:14:48;99445.00;;;23.70
19948;BMP180;10135;50.702;7.276;2023-05-14T12:16:50;99442.00;;;23.70
19948;BMP180;10135;50.702;7.276;2023-05-14T12:18:53;99433.00;;;23.60
19948;BMP180;10135;50.702;7.276;2023-05-14T12:20:54;99433.00;;;23.60
19948;BMP180;10135;50.702;7.276;2023-05-14T12:22:55;99437.00;;;23.60
19948;BMP180;10135;50.702;7.276;2023-05-14T12:24:58;99433.00;;;23.60
19948;BMP180;10135;50.702;7.276;2023-05-14T12:27:01;99424.00;;;23.60
19948;BMP180;10135;50.702;7.276;2023-05-14T12:29:03;99431.00;;;23.60
19948;BMP180;10135;50.702;7.276;2023-05-14T12:31:04;99423.00;;;23.70
19948;BMP180;10135;50.702;7.276;2023-05-14T12:33:05;99419.00;;;23.70
19948;BMP180;10135;50.702;7.276;2023-05-14T12:35:07;99419.00;;;23.70
19948;BMP180;10135;50.702;7.276;2023-05-14T12:37:08;99415.00;;;23.70
19948;BMP180;10135;50.702;7.276;2023-05-14T12:39:10;99413.00;;;23.70
19948;BMP180;10135;50.702;7.276;2023-05-14T12:41:11;99416.00;;;23.70
19948;BMP180;10135;50.702;7.276;2023-05-14T12:43:12;99409.00;;;23.80
19948;BMP180;10135;50.702;7.276;2023-05-14T12:45:12;99413.00;;;23.80
19948;BMP180;10135;50.702;7.276;2023-05-14T12:47:13;99411.00;;;23.80
19948;BMP180;10135;50.702;7.276;2023-05-14T12:49:14;99405.00;;;23.90
19948;BMP180;10135;50.702;7.276;2023-05-14T12:51:15;99406.00;;;24.00
19948;BMP180;10135;50.702;7.276;2023-05-14T12:53:15;99402.00;;;24.10
19948;BMP180;10135;50.702;7.276;2023-05-14T12:55:16;99399.00;;;24.20
19948;BMP180;10135;50.702;7.276;2023-05-14T12:57:17;99392.00;;;24.30
19948;BMP180;10135;50.702;7.276;2023-05-14T12:59:17;99394.00;;;24.40
19948;BMP180;10135;50.702;7.276;2023-05-14T13:01:18;99395.00;;;24.40
19948;BMP180;10135;50.702;7.276;2023-05-14T13:03:19;99394.00;;;24.50
19948;BMP180;10135;50.702;7.276;2023-05-14T13:05:20;99386.00;;;24.60
19948;BMP180;10135;50.702;7.276;2023-05-14T13:07:20;99386.00;;;24.60
19948;BMP180;10135;50.702;7.276;2023-05-14T13:09:21;99380.00;;;24.60
19948;BMP180;10135;50.702;7.276;2023-05-14T13:11:22;99375.00;;;24.60
19948;BMP180;10135;50.702;7.276;2023-05-14T13:13:22;99379.00;;;24.70
19948;BMP180;10135;50.702;7.276;2023-05-14T13:15:26;99376.00;;;24.70
19948;BMP180;10135;50.702;7.276;2023-05-14T13:17:27;99372.00;;;24.80
19948;BMP180;10135;50.702;7.276;2023-05-14T13:19:27;99374.00;;;24.90
19948;BMP180;10135;50.702;7.276;2023-05-14T13:21:28;99371.00;;;24.90
19948;BMP180;10135;50.702;7.276;2023-05-14T13:23:29;99373.00;;;25.00
19948;BMP180;10135;50.702;7.276;2023-05-14T13:25:29;99371.00;;;25.10
19948;BMP180;10135;50.702;7.276;2023-05-14T13:27:30;99368.00;;;25.10
19948;BMP180;10135;50.702;7.276;2023-05-14T13:29:31;99359.00;;;25.10
19948;BMP180;10135;50.702;7.276;2023-05-14T13:31:31;99361.00;;;25.20
19948;BMP180;10135;50.702;7.276;2023-05-14T13:33:39;99357.00;;;25.20
19948;BMP180;10135;50.702;7.276;2023-05-14T13:35:40;99357.00;;;25.20
19948;BMP180;10135;50.702;7.276;2023-05-14T13:37:42;99356.00;;;25.20
19948;BMP180;10135;50.702;7.276;2023-05-14T13:39:43;99359.00;;;25.20
19948;BMP180;10135;50.702;7.276;2023-05-14T13:41:44;99353.00;;;25.10
19948;BMP180;10135;50.702;7.276;2023-05-14T13:43:44;99352.00;;;25.10
19948;BMP180;10135;50.702;7.276;2023-05-14T13:45:45;99352.00;;;25.10
19948;BMP180;10135;50.702;7.276;2023-05-14T13:47:46;99359.00;;;25.00
19948;BMP180;10135;50.702;7.276;2023-05-14T13:49:47;99346.00;;;25.00
19948;BMP180;10135;50.702;7.276;2023-05-14T13:51:47;99352.00;;;24.90
19948;BMP180;10135;50.702;7.276;2023-05-14T13:53:49;99345.00;;;24.90
19948;BMP180;10135;50.702;7.276;2023-05-14T13:55:50;99339.00;;;24.90
19948;BMP180;10135;50.702;7.276;2023-05-14T13:57:57;99341.00;;;24.80
19948;BMP180;10135;50.702;7.276;2023-05-14T13:59:58;99336.00;;;24.80
19948;BMP180;10135;50.702;7.276;2023-05-14T14:01:59;99333.00;;;24.80
19948;BMP180;10135;50.702;7.276;2023-05-14T14:04:00;99328.00;;;24.80
19948;BMP180;10135;50.702;7.276;2023-05-14T14:06:00;99330.00;;;24.80
19948;BMP180;10135;50.702;7.276;2023-05-14T14:08:01;99315.00;;;24.80
19948;BMP180;10135;50.702;7.276;2023-05-14T14:10:02;99320.00;;;24.80
19948;BMP180;10135;50.702;7.276;2023-05-14T14:12:05;99319.00;;;24.80
19948;BMP180;10135;50.702;7.276;2023-05-14T14:14:05;99320.00;;;24.90
19948;BMP180;10135;50.702;7.276;2023-05-14T14:16:06;99318.00;;;24.90
19948;BMP180;10135;50.702;7.276;2023-05-14T14:18:07;99315.00;;;25.00
19948;BMP180;10135;50.702;7.276;2023-05-14T14:20:09;99310.00;;;25.00
19948;BMP180;10135;50.702;7.276;2023-05-14T14:22:10;99306.00;;;25.00
19948;BMP180;10135;50.702;7.276;2023-05-14T14:24:13;99306.00;;;25.00
19948;BMP180;10135;50.702;7.276;2023-05-14T14:26:14;99305.00;;;25.10
19948;BMP180;10135;50.702;7.276;2023-05-14T14:28:15;99313.00;;;25.10
19948;BMP180;10135;50.702;7.276;2023-05-14T14:30:15;99308.00;;;25.10
19948;BMP180;10135;50.702;7.276;2023-05-14T14:32:16;99307.00;;;25.10
19948;BMP180;10135;50.702;7.276;2023-05-14T14:34:17;99310.00;;;25.20
19948;BMP180;10135;50.702;7.276;2023-05-14T14:36:17;99304.00;;;25.20
19948;BMP180;10135;50.702;7.276;2023-05-14T14:38:18;99305.00;;;25.20
19948;BMP180;10135;50.702;7.276;2023-05-14T14:40:19;99298.00;;;25.20
19948;BMP180;10135;50.702;7.276;2023-05-14T14:42:20;99299.00;;;25.20
19948;BMP180;10135;50.702;7.276;2023-05-14T14:44:20;99304.00;;;25.20
19948;BMP180;10135;50.702;7.276;2023-05-14T14:46:21;99290.00;;;25.20
19948;BMP180;10135;50.702;7.276;2023-05-14T14:48:31;99292.00;;;25.20
19948;BMP180;10135;50.702;7.276;2023-05-14T14:50:33;99295.00;;;25.20
19948;BMP180;10135;50.702;7.276;2023-05-14T14:52:34;99289.00;;;25.20
19948;BMP180;10135;50.702;7.276;2023-05-14T14:54:35;99290.00;;;25.30
19948;BMP180;10135;50.702;7.276;2023-05-14T14:56:36;99295.00;;;25.30
19948;BMP180;10135;50.702;7.276;2023-05-14T14:58:36;99288.00;;;25.30
19948;BMP180;10135;50.702;7.276;2023-05-14T15:00:38;99289.00;;;25.30
19948;BMP180;10135;50.702;7.276;2023-05-14T15:02:39;99289.00;;;25.30
19948;BMP180;10135;50.702;7.276;2023-05-14T15:04:42;99285.00;;;25.30
19948;BMP180;10135;50.702;7.276;2023-05-14T15:06:43;99280.00;;;25.30
19948;BMP180;10135;50.702;7.276;2023-05-14T15:08:43;99281.00;;;25.20
19948;BMP180;10135;50.702;7.276;2023-05-14T15:10:44;99281.00;;;25.20
19948;BMP180;10135;50.702;7.276;2023-05-14T15:12:45;99281.00;;;25.20
19948;BMP180;10135;50.702;7.276;2023-05-14T15:14:45;99282.00;;;25.20
19948;BMP180;10135;50.702;7.276;2023-05-14T15:16:46;99277.00;;;25.20
19948;BMP180;10135;50.702;7.276;2023-05-14T15:18:47;99274.00;;;25.20
19948;BMP180;10135;50.702;7.276;2023-05-14T15:23:05;99283.00;;;25.20
19948;BMP180;10135;50.702;7.276;2023-05-14T15:25:32;99282.00;;;25.20
19948;BMP180;10135;50.702;7.276;2023-05-14T15:27:44;99267.00;;;25.20
19948;BMP180;10135;50.702;7.276;2023-05-14T15:33:09;99263.00;;;25.20
19948;BMP180;10135;50.702;7.276;2023-05-14T15:35:28;99265.00;;;25.20
19948;BMP180;10135;50.702;7.276;2023-05-14T15:38:00;99257.00;;;25.20
19948;BMP180;10135;50.702;7.276;2023-05-14T15:45:46;99264.00;;;25.10
19948;BMP180;10135;50.702;7.276;2023-05-14T15:47:49;99266.00;;;25.10
19948;BMP180;10135;50.702;7.276;2023-05-14T15:49:50;99264.00;;;25.10
19948;BMP180;10135;50.702;7.276;2023-05-14T15:51:51;99264.00;;;25.00
19948;BMP180;10135;50.702;7.276;2023-05-14T15:53:52;99264.00;;;24.90
19948;BMP180;10135;50.702;7.276;2023-05-14T15:55:53;99267.00;;;24.80
19948;BMP180;10135;50.702;7.276;2023-05-14T15:57:54;99257.00;;;24.70
19948;BMP180;10135;50.702;7.276;2023-05-14T15:59:55;99250.00;;;24.60
19948;BMP180;10135;50.702;7.276;2023-05-14T16:01:56;99251.00;;;24.50
19948;BMP180;10135;50.702;7.276;2023-05-14T16:03:56;99251.00;;;24.50
19948;BMP180;10135;50.702;7.276;2023-05-14T16:05:57;99254.00;;;24.40
19948;BMP180;10135;50.702;7.276;2023-05-14T16:07:58;99261.00;;;24.40
19948;BMP180;10135;50.702;7.276;2023-05-14T16:09:59;99253.00;;;24.40
19948;BMP180;10135;50.702;7.276;2023-05-14T16:11:59;99248.00;;;24.30
19948;BMP180;10135;50.702;7.276;2023-05-14T16:14:00;99255.00;;;24.30
19948;BMP180;10135;50.702;7.276;2023-05-14T16:16:01;99249.00;;;24.20
19948;BMP180;10135;50.702;7.276;2023-05-14T16:18:02;99255.00;;;24.20
19948;BMP180;10135;50.702;7.276;2023-05-14T16:20:03;99254.00;;;24.10
19948;BMP180;10135;50.702;7.276;2023-05-14T16:22:06;99251.00;;;24.10
19948;BMP180;10135;50.702;7.276;2023-05-14T16:24:07;99256.00;;;24.10
19948;BMP180;10135;50.702;7.276;2023-05-14T16:26:08;99249.00;;;24.10
19948;BMP180;10135;50.702;7.276;2023-05-14T16:28:08;99251.00;;;24.10
19948;BMP180;10135;50.702;7.276;2023-05-14T16:30:09;99250.00;;;24.10
19948;BMP180;10135;50.702;7.276;2023-05-14T16:32:10;99254.00;;;24.20
19948;BMP180;10135;50.702;7.276;2023-05-14T16:34:11;99248.00;;;24.20
19948;BMP180;10135;50.702;7.276;2023-05-14T16:36:11;99243.00;;;24.20
19948;BMP180;10135;50.702;7.276;2023-05-14T16:38:12;99246.00;;;24.20
19948;BMP180;10135;50.702;7.276;2023-05-14T16:40:13;99248.00;;;24.20
19948;BMP180;10135;50.702;7.276;2023-05-14T16:42:15;99241.00;;;24.20
19948;BMP180;10135;50.702;7.276;2023-05-14T16:44:16;99248.00;;;24.20
19948;BMP180;10135;50.702;7.276;2023-05-14T16:46:16;99249.00;;;24.20
19948;BMP180;10135;50.702;7.276;2023-05-14T16:48:17;99249.00;;;24.10
19948;BMP180;10135;50.702;7.276;2023-05-14T16:50:18;99250.00;;;24.10
19948;BMP180;10135;50.702;7.276;2023-05-14T16:52:18;99249.00;;;24.10
19948;BMP180;10135;50.702;7.276;2023-05-14T16:54:19;99252.00;;;24.10
19948;BMP180;10135;50.702;7.276;2023-05-14T16:56:20;99250.00;;;24.10
19948;BMP180;10135;50.702;7.276;2023-05-14T16:58:20;99245.00;;;24.00
19948;BMP180;10135;50.702;7.276;2023-05-14T17:00:21;99249.00;;;24.00
19948;BMP180;10135;50.702;7.276;2023-05-14T17:02:22;99256.00;;;24.00
19948;BMP180;10135;50.702;7.276;2023-05-14T17:04:23;99247.00;;;24.00
19948;BMP180;10135;50.702;7.276;2023-05-14T17:06:25;99246.00;;;24.00
19948;BMP180;10135;50.702;7.276;2023-05-14T17:08:26;99245.00;;;23.90
19948;BMP180;10135;50.702;7.276;2023-05-14T17:10:31;99238.00;;;23.90
19948;BMP180;10135;50.702;7.276;2023-05-14T17:12:32;99246.00;;;23.90
19948;BMP180;10135;50.702;7.276;2023-05-14T17:14:33;99243.00;;;23.90
19948;BMP180;10135;50.702;7.276;2023-05-14T17:16:34;99252.00;;;23.80
19948;BMP180;10135;50.702;7.276;2023-05-14T17:18:34;99245.00;;;23.80
19948;BMP180;10135;50.702;7.276;2023-05-14T17:20:35;99251.00;;;23.80
19948;BMP180;10135;50.702;7.276;2023-05-14T17:22:36;99255.00;;;23.80
19948;BMP180;10135;50.702;7.276;2023-05-14T17:24:37;99259.00;;;23.70
19948;BMP180;10135;50.702;7.276;2023-05-14T17:26:38;99257.00;;;23.70
19948;BMP180;10135;50.702;7.276;2023-05-14T17:28:39;99260.00;;;23.70
19948;BMP180;10135;50.702;7.276;2023-05-14T17:30:40;99257.00;;;23.60